sensor_id;sensor_type;location;lat;lon;timestamp;pressure;altitude;pressure_sealevel;temperature;humidity
75668;BME280;64266;48.798;44.756;2022-12-31T00:01:10;102467.03;;;7.32;62.64
75668;BME280;64266;48.798;44.756;2022-12-31T00:03:38;102490.88;;;7.48;63.18
75668;BME280;64266;48.798;44.756;2022-12-31T00:06:26;102477.91;;;7.54;64.03
75668;BME280;64266;48.798;44.756;2022-12-31T00:08:54;102459.94;;;7.32;63.29
75668;BME280;64266;48.798;44.756;2022-12-31T00:11:22;102481.16;;;7.48;62.89
75668;BME280;64266;48.798;44.756;2022-12-31T00:13:49;102382.53;;;6.80;62.88
75668;BME280;64266;48.798;44.756;2022-12-31T00:16:18;102357.50;;;6.76;63.26
75668;BME280;64266;48.798;44.756;2022-12-31T00:18:46;102483.97;;;7.47;64.18
75668;BME280;64266;48.798;44.756;2022-12-31T00:21:12;102487.28;;;7.49;63.63
75668;BME280;64266;48.798;44.756;2022-12-31T00:23:39;102461.28;;;7.36;63.52
75668;BME280;64266;48.798;44.756;2022-12-31T00:26:10;102437.88;;;7.16;63.74
75668;BME280;64266;48.798;44.756;2022-12-31T00:28:37;102426.16;;;7.10;63.31
75668;BME280;64266;48.798;44.756;2022-12-31T00:31:13;102447.03;;;7.29;63.09
75668;BME280;64266;48.798;44.756;2022-12-31T00:33:40;102471.63;;;7.30;63.66
75668;BME280;64266;48.798;44.756;2022-12-31T00:36:30;102462.50;;;7.24;64.16
75668;BME280;64266;48.798;44.756;2022-12-31T00:38:58;102462.69;;;7.23;64.77
75668;BME280;64266;48.798;44.756;2022-12-31T00:41:24;102457.25;;;7.24;63.42
75668;BME280;64266;48.798;44.756;2022-12-31T00:43:50;102460.66;;;7.17;64.06
75668;BME280;64266;48.798;44.756;2022-12-31T00:46:17;102460.22;;;7.29;63.83
75668;BME280;64266;48.798;44.756;2022-12-31T00:48:43;102463.00;;;7.20;63.70
75668;BME280;64266;48.798;44.756;2022-12-31T00:51:13;102464.00;;;7.27;64.19
75668;BME280;64266;48.798;44.756;2022-12-31T00:53:40;102429.34;;;7.22;63.89
75668;BME280;64266;48.798;44.756;2022-12-31T00:56:11;102449.28;;;7.42;63.49
75668;BME280;64266;48.798;44.756;2022-12-31T00:58:37;102464.00;;;7.44;63.21
75668;BME280;64266;48.798;44.756;2022-12-31T01:01:21;102449.59;;;7.39;62.04
75668;BME280;64266;48.798;44.756;2022-12-31T01:03:50;102410.63;;;7.33;62.67
75668;BME280;64266;48.798;44.756;2022-12-31T01:06:16;102447.91;;;7.63;62.46
75668;BME280;64266;48.798;44.756;2022-12-31T01:08:43;102454.97;;;7.55;60.80
75668;BME280;64266;48.798;44.756;2022-12-31T01:11:10;102414.13;;;7.41;62.17
75668;BME280;64266;48.798;44.756;2022-12-31T01:16:33;102422.22;;;7.40;61.25
75668;BME280;64266;48.798;44.756;2022-12-31T01:19:06;102442.75;;;7.54;60.92
75668;BME280;64266;48.798;44.756;2022-12-31T01:21:33;102418.97;;;7.46;62.66
75668;BME280;64266;48.798;44.756;2022-12-31T01:23:59;102416.19;;;7.47;60.81
75668;BME280;64266;48.798;44.756;2022-12-31T01:26:26;102426.97;;;7.62;61.52
75668;BME280;64266;48.798;44.756;2022-12-31T01:28:53;102410.41;;;7.52;60.66
75668;BME280;64266;48.798;44.756;2022-12-31T01:31:20;102420.38;;;7.66;61.52
75668;BME280;64266;48.798;44.756;2022-12-31T01:33:47;102384.44;;;7.39;60.62
75668;BME280;64266;48.798;44.756;2022-12-31T01:36:15;102389.69;;;7.31;61.00
75668;BME280;64266;48.798;44.756;2022-12-31T01:38:42;102396.50;;;7.42;60.92
75668;BME280;64266;48.798;44.756;2022-12-31T01:41:17;102407.88;;;7.42;60.76
75668;BME280;64266;48.798;44.756;2022-12-31T01:43:54;102411.50;;;7.41;61.94
75668;BME280;64266;48.798;44.756;2022-12-31T01:46:28;102408.56;;;7.44;60.63
75668;BME280;64266;48.798;44.756;2022-12-31T01:49:00;102410.19;;;7.45;61.14
75668;BME280;64266;48.798;44.756;2022-12-31T01:51:30;102414.72;;;7.53;60.92
75668;BME280;64266;48.798;44.756;2022-12-31T01:53:59;102310.75;;;6.86;59.79
75668;BME280;64266;48.798;44.756;2022-12-31T01:56:27;102398.78;;;7.37;61.10
75668;BME280;64266;48.798;44.756;2022-12-31T01:58:54;102387.56;;;7.35;61.68
75668;BME280;64266;48.798;44.756;2022-12-31T02:01:28;102396.50;;;7.42;59.99
75668;BME280;64266;48.798;44.756;2022-12-31T02:03:56;102403.16;;;7.54;61.38
75668;BME280;64266;48.798;44.756;2022-12-31T02:06:36;102386.13;;;7.48;59.87
75668;BME280;64266;48.798;44.756;2022-12-31T02:09:03;102372.38;;;7.37;61.09
75668;BME280;64266;48.798;44.756;2022-12-31T02:11:32;102375.22;;;7.43;59.53
75668;BME280;64266;48.798;44.756;2022-12-31T02:14:05;102408.09;;;7.49;61.78
75668;BME280;64266;48.798;44.756;2022-12-31T02:16:41;102411.22;;;7.44;61.29
75668;BME280;64266;48.798;44.756;2022-12-31T02:22:06;102411.31;;;7.35;61.74
75668;BME280;64266;48.798;44.756;2022-12-31T02:35:47;102405.41;;;7.41;62.11
75668;BME280;64266;48.798;44.756;2022-12-31T02:38:21;102374.31;;;7.27;60.09
75668;BME280;64266;48.798;44.756;2022-12-31T02:40:49;102346.69;;;7.13;60.71
75668;BME280;64266;48.798;44.756;2022-12-31T02:43:15;102383.56;;;7.31;60.03
75668;BME280;64266;48.798;44.756;2022-12-31T02:45:45;102380.44;;;7.35;61.04
75668;BME280;64266;48.798;44.756;2022-12-31T02:48:45;102303.44;;;6.80;60.96
75668;BME280;64266;48.798;44.756;2022-12-31T02:59:27;102346.59;;;6.97;61.46
75668;BME280;64266;48.798;44.756;2022-12-31T03:02:17;102389.16;;;7.28;61.74
75668;BME280;64266;48.798;44.756;2022-12-31T03:04:49;102382.38;;;7.25;61.48
75668;BME280;64266;48.798;44.756;2022-12-31T03:07:25;102367.13;;;7.11;61.48
75668;BME280;64266;48.798;44.756;2022-12-31T03:09:52;102267.56;;;6.62;62.31
75668;BME280;64266;48.798;44.756;2022-12-31T03:12:21;102346.19;;;7.09;61.16
75668;BME280;64266;48.798;44.756;2022-12-31T03:15:08;102377.31;;;7.32;62.39
75668;BME280;64266;48.798;44.756;2022-12-31T03:17:54;102376.59;;;7.22;60.60
75668;BME280;64266;48.798;44.756;2022-12-31T03:20:22;102372.97;;;7.23;61.04
75668;BME280;64266;48.798;44.756;2022-12-31T03:23:08;102352.38;;;7.00;61.03
75668;BME280;64266;48.798;44.756;2022-12-31T03:25:34;102329.41;;;6.93;61.94
75668;BME280;64266;48.798;44.756;2022-12-31T03:28:04;102266.03;;;6.51;61.29
75668;BME280;64266;48.798;44.756;2022-12-31T03:30:31;102366.88;;;7.22;62.03
75668;BME280;64266;48.798;44.756;2022-12-31T03:32:57;102324.00;;;6.94;61.39
75668;BME280;64266;48.798;44.756;2022-12-31T03:35:24;102325.25;;;6.82;61.12
75668;BME280;64266;48.798;44.756;2022-12-31T03:37:52;102378.59;;;7.02;61.54
75668;BME280;64266;48.798;44.756;2022-12-31T03:40:19;102329.16;;;6.78;61.47
75668;BME280;64266;48.798;44.756;2022-12-31T03:42:46;102328.53;;;6.84;61.59
75668;BME280;64266;48.798;44.756;2022-12-31T03:45:12;102345.31;;;7.01;61.49
75668;BME280;64266;48.798;44.756;2022-12-31T03:47:38;102376.72;;;7.20;61.51
75668;BME280;64266;48.798;44.756;2022-12-31T03:50:06;102370.81;;;7.26;61.14
75668;BME280;64266;48.798;44.756;2022-12-31T03:52:33;102327.34;;;7.04;61.70
75668;BME280;64266;48.798;44.756;2022-12-31T03:54:58;102370.19;;;7.32;60.89
75668;BME280;64266;48.798;44.756;2022-12-31T03:57:27;102357.19;;;7.31;61.60
75668;BME280;64266;48.798;44.756;2022-12-31T03:59:53;102323.81;;;7.22;61.72
75668;BME280;64266;48.798;44.756;2022-12-31T04:02:19;102339.88;;;7.36;59.59
75668;BME280;64266;48.798;44.756;2022-12-31T04:04:45;102330.00;;;7.38;60.09
75668;BME280;64266;48.798;44.756;2022-12-31T04:07:11;102304.41;;;7.31;59.13
75668;BME280;64266;48.798;44.756;2022-12-31T04:09:37;102271.25;;;6.94;59.61
75668;BME280;64266;48.798;44.756;2022-12-31T04:12:03;102348.53;;;7.46;59.93
75668;BME280;64266;48.798;44.756;2022-12-31T04:14:29;102298.72;;;7.18;59.66
75668;BME280;64266;48.798;44.756;2022-12-31T04:16:55;102329.34;;;7.36;59.04
75668;BME280;64266;48.798;44.756;2022-12-31T04:19:22;102300.09;;;7.22;59.41
75668;BME280;64266;48.798;44.756;2022-12-31T04:21:49;102346.09;;;7.61;58.83
75668;BME280;64266;48.798;44.756;2022-12-31T04:24:14;102334.84;;;7.51;59.05
75668;BME280;64266;48.798;44.756;2022-12-31T04:26:40;102338.09;;;7.45;58.53
75668;BME280;64266;48.798;44.756;2022-12-31T04:29:08;102240.44;;;6.95;57.86
75668;BME280;64266;48.798;44.756;2022-12-31T04:31:34;102356.88;;;7.68;57.82
75668;BME280;64266;48.798;44.756;2022-12-31T04:34:00;102235.16;;;6.95;58.58
75668;BME280;64266;48.798;44.756;2022-12-31T04:36:26;102325.91;;;7.44;58.37
75668;BME280;64266;48.798;44.756;2022-12-31T04:38:51;102335.16;;;7.48;58.79
75668;BME280;64266;48.798;44.756;2022-12-31T04:41:18;102368.44;;;7.75;59.10
75668;BME280;64266;48.798;44.756;2022-12-31T04:43:48;102362.34;;;7.74;58.19
75668;BME280;64266;48.798;44.756;2022-12-31T04:46:15;102304.94;;;7.42;57.17
75668;BME280;64266;48.798;44.756;2022-12-31T04:48:42;102341.69;;;7.70;58.23
75668;BME280;64266;48.798;44.756;2022-12-31T04:51:09;102347.53;;;7.81;57.08
75668;BME280;64266;48.798;44.756;2022-12-31T04:53:36;102295.28;;;7.59;58.59
75668;BME280;64266;48.798;44.756;2022-12-31T04:56:02;102354.47;;;7.90;57.79
75668;BME280;64266;48.798;44.756;2022-12-31T04:58:28;102313.47;;;7.70;56.66
75668;BME280;64266;48.798;44.756;2022-12-31T05:00:55;102340.53;;;7.72;55.98
75668;BME280;64266;48.798;44.756;2022-12-31T05:03:23;102355.94;;;7.85;57.03
75668;BME280;64266;48.798;44.756;2022-12-31T05:05:50;102346.56;;;7.90;56.96
75668;BME280;64266;48.798;44.756;2022-12-31T05:08:16;102254.81;;;7.42;55.83
75668;BME280;64266;48.798;44.756;2022-12-31T05:10:44;102298.91;;;7.66;56.60
75668;BME280;64266;48.798;44.756;2022-12-31T05:13:10;102323.44;;;7.84;56.79
75668;BME280;64266;48.798;44.756;2022-12-31T05:15:37;102300.59;;;7.67;56.76
75668;BME280;64266;48.798;44.756;2022-12-31T05:18:03;102336.47;;;7.94;56.11
75668;BME280;64266;48.798;44.756;2022-12-31T05:20:30;102309.84;;;7.71;56.30
75668;BME280;64266;48.798;44.756;2022-12-31T05:22:55;102330.34;;;7.77;55.97
75668;BME280;64266;48.798;44.756;2022-12-31T05:25:22;102324.56;;;7.82;56.59
75668;BME280;64266;48.798;44.756;2022-12-31T05:27:48;102258.28;;;7.43;55.90
75668;BME280;64266;48.798;44.756;2022-12-31T05:30:14;102314.31;;;7.79;56.03
75668;BME280;64266;48.798;44.756;2022-12-31T05:32:42;102294.34;;;7.68;55.86
75668;BME280;64266;48.798;44.756;2022-12-31T05:35:08;102324.22;;;7.85;55.41
75668;BME280;64266;48.798;44.756;2022-12-31T05:37:34;102300.63;;;7.75;55.71
75668;BME280;64266;48.798;44.756;2022-12-31T05:40:00;102243.22;;;7.35;54.90
75668;BME280;64266;48.798;44.756;2022-12-31T05:42:26;102279.91;;;7.54;55.60
75668;BME280;64266;48.798;44.756;2022-12-31T05:44:52;102311.47;;;7.64;55.21
75668;BME280;64266;48.798;44.756;2022-12-31T05:47:18;102295.75;;;7.54;55.68
75668;BME280;64266;48.798;44.756;2022-12-31T05:49:44;102240.16;;;7.06;55.54
75668;BME280;64266;48.798;44.756;2022-12-31T05:52:10;102303.22;;;7.59;56.42
75668;BME280;64266;48.798;44.756;2022-12-31T05:54:36;102267.81;;;7.36;56.15
75668;BME280;64266;48.798;44.756;2022-12-31T05:57:03;102306.69;;;7.59;57.48
75668;BME280;64266;48.798;44.756;2022-12-31T05:59:29;102304.53;;;7.63;56.14
75668;BME280;64266;48.798;44.756;2022-12-31T06:01:56;102272.44;;;7.34;55.10
75668;BME280;64266;48.798;44.756;2022-12-31T06:04:22;102303.28;;;7.75;55.27
75668;BME280;64266;48.798;44.756;2022-12-31T06:06:48;102223.75;;;7.28;55.46
75668;BME280;64266;48.798;44.756;2022-12-31T06:09:15;102290.22;;;7.74;54.96
75668;BME280;64266;48.798;44.756;2022-12-31T06:11:42;102307.22;;;7.79;54.79
75668;BME280;64266;48.798;44.756;2022-12-31T06:14:09;102251.00;;;7.45;55.11
75668;BME280;64266;48.798;44.756;2022-12-31T06:16:34;102236.97;;;7.36;55.37
75668;BME280;64266;48.798;44.756;2022-12-31T06:19:01;102251.84;;;7.37;55.49
75668;BME280;64266;48.798;44.756;2022-12-31T06:21:28;102292.53;;;7.69;56.02
75668;BME280;64266;48.798;44.756;2022-12-31T06:23:54;102301.28;;;7.77;55.24
75668;BME280;64266;48.798;44.756;2022-12-31T06:26:20;102301.94;;;7.79;55.34
75668;BME280;64266;48.798;44.756;2022-12-31T06:28:46;102303.94;;;7.85;55.86
75668;BME280;64266;48.798;44.756;2022-12-31T06:31:13;102296.69;;;7.87;55.55
75668;BME280;64266;48.798;44.756;2022-12-31T06:33:40;102294.38;;;7.84;54.88
75668;BME280;64266;48.798;44.756;2022-12-31T06:36:08;102285.94;;;7.81;54.49
75668;BME280;64266;48.798;44.756;2022-12-31T06:38:38;102251.38;;;7.50;54.47
75668;BME280;64266;48.798;44.756;2022-12-31T06:41:10;102268.06;;;7.67;54.06
75668;BME280;64266;48.798;44.756;2022-12-31T06:43:39;102250.25;;;7.60;54.80
75668;BME280;64266;48.798;44.756;2022-12-31T06:46:08;102279.19;;;7.78;54.55
75668;BME280;64266;48.798;44.756;2022-12-31T06:48:34;102271.22;;;7.70;54.95
75668;BME280;64266;48.798;44.756;2022-12-31T06:51:10;102268.44;;;7.72;54.83
75668;BME280;64266;48.798;44.756;2022-12-31T06:53:36;102247.09;;;7.57;55.81
75668;BME280;64266;48.798;44.756;2022-12-31T06:56:16;102267.09;;;7.76;54.61
75668;BME280;64266;48.798;44.756;2022-12-31T06:58:43;102258.19;;;7.77;54.58
75668;BME280;64266;48.798;44.756;2022-12-31T07:03:43;102260.66;;;7.70;54.68
75668;BME280;64266;48.798;44.756;2022-12-31T07:09:39;102267.78;;;7.94;53.85
75668;BME280;64266;48.798;44.756;2022-12-31T07:14:58;102246.84;;;8.00;53.57
75668;BME280;64266;48.798;44.756;2022-12-31T07:17:55;102248.19;;;8.04;53.72
75668;BME280;64266;48.798;44.756;2022-12-31T07:20:25;102180.28;;;7.64;52.95
75668;BME280;64266;48.798;44.756;2022-12-31T07:22:51;102196.50;;;7.78;53.44
75668;BME280;64266;48.798;44.756;2022-12-31T07:25:18;102245.03;;;8.01;52.58
75668;BME280;64266;48.798;44.756;2022-12-31T07:39:07;102220.59;;;8.23;53.70
75668;BME280;64266;48.798;44.756;2022-12-31T07:46:59;102210.88;;;8.32;52.88
75668;BME280;64266;48.798;44.756;2022-12-31T07:49:27;102197.47;;;8.25;53.58
75668;BME280;64266;48.798;44.756;2022-12-31T07:51:55;102209.53;;;8.44;53.71
75668;BME280;64266;48.798;44.756;2022-12-31T07:54:22;102185.75;;;8.44;54.69
75668;BME280;64266;48.798;44.756;2022-12-31T07:56:49;102174.53;;;8.34;54.44
75668;BME280;64266;48.798;44.756;2022-12-31T08:03:00;102162.94;;;8.18;56.35
75668;BME280;64266;48.798;44.756;2022-12-31T08:13:32;102155.69;;;8.21;57.18
75668;BME280;64266;48.798;44.756;2022-12-31T08:16:00;102161.97;;;8.28;58.75
75668;BME280;64266;48.798;44.756;2022-12-31T08:18:27;102141.84;;;8.10;57.77
75668;BME280;64266;48.798;44.756;2022-12-31T08:21:03;102156.34;;;8.23;57.03
75668;BME280;64266;48.798;44.756;2022-12-31T08:24:10;102139.03;;;8.04;58.14
75668;BME280;64266;48.798;44.756;2022-12-31T08:34:37;102143.47;;;8.19;59.18
75668;BME280;64266;48.798;44.756;2022-12-31T08:45:38;102100.59;;;7.93;61.49
75668;BME280;64266;48.798;44.756;2022-12-31T08:48:39;102114.59;;;7.94;61.27
75668;BME280;64266;48.798;44.756;2022-12-31T08:51:12;102116.44;;;7.85;63.11
75668;BME280;64266;48.798;44.756;2022-12-31T08:53:39;102118.09;;;7.78;64.27
75668;BME280;64266;48.798;44.756;2022-12-31T08:56:39;102101.91;;;7.73;64.96
75668;BME280;64266;48.798;44.756;2022-12-31T09:05:03;102103.56;;;7.50;66.21
75668;BME280;64266;48.798;44.756;2022-12-31T09:07:40;102062.31;;;7.33;67.33
75668;BME280;64266;48.798;44.756;2022-12-31T09:10:24;102073.88;;;7.32;67.20
75668;BME280;64266;48.798;44.756;2022-12-31T09:15:42;102077.16;;;7.26;69.57
75668;BME280;64266;48.798;44.756;2022-12-31T09:18:12;101998.97;;;6.76;68.23
75668;BME280;64266;48.798;44.756;2022-12-31T09:20:39;102047.63;;;7.06;69.20
75668;BME280;64266;48.798;44.756;2022-12-31T09:23:06;102066.25;;;7.13;70.32
75668;BME280;64266;48.798;44.756;2022-12-31T09:25:32;102071.16;;;6.91;70.76
75668;BME280;64266;48.798;44.756;2022-12-31T09:28:29;102077.28;;;7.08;70.74
75668;BME280;64266;48.798;44.756;2022-12-31T09:31:20;102055.34;;;6.99;71.66
75668;BME280;64266;48.798;44.756;2022-12-31T09:33:54;102059.69;;;7.17;72.78
75668;BME280;64266;48.798;44.756;2022-12-31T09:36:33;102047.78;;;7.13;70.61
75668;BME280;64266;48.798;44.756;2022-12-31T09:42:26;102053.56;;;7.24;72.07
75668;BME280;64266;48.798;44.756;2022-12-31T09:48:14;102049.78;;;7.35;72.39
75668;BME280;64266;48.798;44.756;2022-12-31T09:52:13;102036.59;;;7.27;72.84
75668;BME280;64266;48.798;44.756;2022-12-31T10:16:07;102035.91;;;7.57;71.45
75668;BME280;64266;48.798;44.756;2022-12-31T10:18:57;102048.78;;;7.52;73.51
75668;BME280;64266;48.798;44.756;2022-12-31T10:25:03;102036.75;;;7.25;71.63
75668;BME280;64266;48.798;44.756;2022-12-31T10:27:50;102054.22;;;7.26;70.82
75668;BME280;64266;48.798;44.756;2022-12-31T10:30:20;102038.56;;;7.17;72.23
75668;BME280;64266;48.798;44.756;2022-12-31T10:33:05;102037.06;;;7.06;70.68
75668;BME280;64266;48.798;44.756;2022-12-31T10:46:35;102029.63;;;6.93;71.46
75668;BME280;64266;48.798;44.756;2022-12-31T10:57:28;102021.72;;;7.01;70.65
75668;BME280;64266;48.798;44.756;2022-12-31T11:00:20;102015.47;;;7.02;70.75
75668;BME280;64266;48.798;44.756;2022-12-31T11:09:15;101981.19;;;6.94;70.33
75668;BME280;64266;48.798;44.756;2022-12-31T11:12:01;101991.41;;;7.14;70.74
75668;BME280;64266;48.798;44.756;2022-12-31T11:17:54;101993.56;;;7.34;70.84
75668;BME280;64266;48.798;44.756;2022-12-31T11:23:36;101988.25;;;7.42;69.34
75668;BME280;64266;48.798;44.756;2022-12-31T11:34:43;101992.38;;;7.53;70.54
75668;BME280;64266;48.798;44.756;2022-12-31T11:45:51;101990.38;;;7.63;69.52
75668;BME280;64266;48.798;44.756;2022-12-31T11:48:43;101989.56;;;7.54;69.80
75668;BME280;64266;48.798;44.756;2022-12-31T11:57:02;101988.41;;;7.57;69.00
75668;BME280;64266;48.798;44.756;2022-12-31T11:59:33;101880.31;;;6.84;69.05
75668;BME280;64266;48.798;44.756;2022-12-31T12:02:00;101995.97;;;7.60;69.22
75668;BME280;64266;48.798;44.756;2022-12-31T12:04:29;101999.28;;;7.54;70.44
75668;BME280;64266;48.798;44.756;2022-12-31T12:06:55;102009.19;;;7.60;70.85
75668;BME280;64266;48.798;44.756;2022-12-31T12:09:29;101974.41;;;7.32;70.38
75668;BME280;64266;48.798;44.756;2022-12-31T12:12:02;102002.59;;;7.56;71.21
75668;BME280;64266;48.798;44.756;2022-12-31T12:14:35;102003.09;;;7.59;71.09
75668;BME280;64266;48.798;44.756;2022-12-31T12:17:02;101896.63;;;6.88;70.33
75668;BME280;64266;48.798;44.756;2022-12-31T12:19:33;101989.91;;;7.35;70.39
75668;BME280;64266;48.798;44.756;2022-12-31T12:22:11;102001.13;;;7.45;70.20
75668;BME280;64266;48.798;44.756;2022-12-31T12:24:39;101986.94;;;7.30;72.07
75668;BME280;64266;48.798;44.756;2022-12-31T12:27:19;102013.50;;;7.53;71.37
75668;BME280;64266;48.798;44.756;2022-12-31T12:29:46;101992.03;;;7.48;71.64
75668;BME280;64266;48.798;44.756;2022-12-31T12:32:16;102005.25;;;7.56;72.26
75668;BME280;64266;48.798;44.756;2022-12-31T12:34:43;101962.03;;;7.33;72.52
75668;BME280;64266;48.798;44.756;2022-12-31T12:37:35;101987.28;;;7.43;72.17
75668;BME280;64266;48.798;44.756;2022-12-31T12:42:30;101992.22;;;7.38;70.68
75668;BME280;64266;48.798;44.756;2022-12-31T12:45:13;101965.34;;;7.35;71.08
75668;BME280;64266;48.798;44.756;2022-12-31T12:47:41;101982.66;;;7.45;72.51
75668;BME280;64266;48.798;44.756;2022-12-31T12:50:20;101918.88;;;7.01;71.71
75668;BME280;64266;48.798;44.756;2022-12-31T12:53:11;101990.56;;;7.61;71.70
75668;BME280;64266;48.798;44.756;2022-12-31T12:55:53;101973.72;;;7.54;71.56
75668;BME280;64266;48.798;44.756;2022-12-31T13:06:35;102015.13;;;7.62;70.88
75668;BME280;64266;48.798;44.756;2022-12-31T13:10:41;102007.53;;;7.67;71.36
75668;BME280;64266;48.798;44.756;2022-12-31T13:14:58;102007.03;;;7.72;71.44
75668;BME280;64266;48.798;44.756;2022-12-31T13:20:33;102017.13;;;7.52;70.21
75668;BME280;64266;48.798;44.756;2022-12-31T13:23:32;102010.88;;;7.53;71.31
75668;BME280;64266;48.798;44.756;2022-12-31T13:26:19;102012.84;;;7.59;70.02
75668;BME280;64266;48.798;44.756;2022-12-31T13:28:51;102005.41;;;7.62;72.64
75668;BME280;64266;48.798;44.756;2022-12-31T13:31:25;102018.09;;;7.67;71.21
75668;BME280;64266;48.798;44.756;2022-12-31T13:34:00;102022.38;;;7.68;70.65
75668;BME280;64266;48.798;44.756;2022-12-31T13:36:28;101993.03;;;7.55;70.58
75668;BME280;64266;48.798;44.756;2022-12-31T13:38:59;102020.88;;;7.74;71.67
75668;BME280;64266;48.798;44.756;2022-12-31T13:44:13;102034.56;;;7.85;70.37
75668;BME280;64266;48.798;44.756;2022-12-31T13:47:02;102033.28;;;7.81;69.70
75668;BME280;64266;48.798;44.756;2022-12-31T13:49:39;102031.63;;;7.80;70.58
75668;BME280;64266;48.798;44.756;2022-12-31T13:52:36;102004.09;;;7.58;69.77
75668;BME280;64266;48.798;44.756;2022-12-31T14:00:57;102021.38;;;7.77;69.30
75668;BME280;64266;48.798;44.756;2022-12-31T14:06:31;102033.41;;;7.80;69.53
75668;BME280;64266;48.798;44.756;2022-12-31T14:08:58;102056.31;;;8.03;69.36
75668;BME280;64266;48.798;44.756;2022-12-31T14:11:46;102028.78;;;7.82;67.52
75668;BME280;64266;48.798;44.756;2022-12-31T14:22:19;102056.97;;;8.05;68.65
75668;BME280;64266;48.798;44.756;2022-12-31T14:24:49;102043.78;;;8.05;69.34
75668;BME280;64266;48.798;44.756;2022-12-31T14:30:05;102036.19;;;7.94;68.17
75668;BME280;64266;48.798;44.756;2022-12-31T14:35:48;102067.38;;;8.15;69.27
75668;BME280;64266;48.798;44.756;2022-12-31T14:41:08;102054.84;;;8.09;68.08
75668;BME280;64266;48.798;44.756;2022-12-31T14:46:55;102082.69;;;8.28;66.87
75668;BME280;64266;48.798;44.756;2022-12-31T14:49:33;102072.63;;;8.31;66.37
75668;BME280;64266;48.798;44.756;2022-12-31T14:52:23;102090.28;;;8.31;67.88
75668;BME280;64266;48.798;44.756;2022-12-31T14:55:21;102078.09;;;8.30;66.80
75668;BME280;64266;48.798;44.756;2022-12-31T14:57:48;102087.63;;;8.31;68.57
75668;BME280;64266;48.798;44.756;2022-12-31T15:00:25;102092.94;;;8.31;68.10
75668;BME280;64266;48.798;44.756;2022-12-31T15:06:00;102081.56;;;8.30;67.68
75668;BME280;64266;48.798;44.756;2022-12-31T15:09:01;102080.34;;;8.41;66.92
75668;BME280;64266;48.798;44.756;2022-12-31T15:11:57;102092.88;;;8.47;67.08
75668;BME280;64266;48.798;44.756;2022-12-31T15:14:44;102095.19;;;8.50;66.61
75668;BME280;64266;48.798;44.756;2022-12-31T15:24:49;102039.78;;;8.09;65.12
75668;BME280;64266;48.798;44.756;2022-12-31T15:29:56;102040.00;;;7.92;64.76
75668;BME280;64266;48.798;44.756;2022-12-31T15:32:39;102096.59;;;8.30;66.21
75668;BME280;64266;48.798;44.756;2022-12-31T15:35:30;102102.03;;;8.28;65.99
75668;BME280;64266;48.798;44.756;2022-12-31T15:38:01;102115.72;;;8.32;65.17
75668;BME280;64266;48.798;44.756;2022-12-31T15:40:28;102105.34;;;8.30;64.73
75668;BME280;64266;48.798;44.756;2022-12-31T15:43:01;102066.69;;;8.13;65.13
75668;BME280;64266;48.798;44.756;2022-12-31T15:45:39;102108.28;;;8.35;64.91
75668;BME280;64266;48.798;44.756;2022-12-31T15:48:17;101984.59;;;7.68;64.64
75668;BME280;64266;48.798;44.756;2022-12-31T15:50:45;102118.38;;;8.40;64.08
75668;BME280;64266;48.798;44.756;2022-12-31T15:53:28;102120.19;;;8.31;63.64
75668;BME280;64266;48.798;44.756;2022-12-31T15:55:58;102089.34;;;7.99;64.47
75668;BME280;64266;48.798;44.756;2022-12-31T15:58:29;102128.13;;;8.15;64.33
75668;BME280;64266;48.798;44.756;2022-12-31T16:01:13;102124.00;;;8.12;64.09
75668;BME280;64266;48.798;44.756;2022-12-31T16:03:46;102123.81;;;8.06;64.49
75668;BME280;64266;48.798;44.756;2022-12-31T16:06:15;102133.94;;;8.02;64.11
75668;BME280;64266;48.798;44.756;2022-12-31T16:08:46;102118.41;;;7.99;63.76
75668;BME280;64266;48.798;44.756;2022-12-31T16:11:13;102096.97;;;7.78;63.67
75668;BME280;64266;48.798;44.756;2022-12-31T16:13:43;102126.66;;;7.88;63.95
75668;BME280;64266;48.798;44.756;2022-12-31T16:16:36;102105.22;;;7.75;63.51
75668;BME280;64266;48.798;44.756;2022-12-31T16:19:02;102124.50;;;7.92;63.17
75668;BME280;64266;48.798;44.756;2022-12-31T16:21:31;102136.41;;;7.88;63.19
75668;BME280;64266;48.798;44.756;2022-12-31T16:24:28;102155.06;;;7.78;62.73
75668;BME280;64266;48.798;44.756;2022-12-31T16:26:58;102144.50;;;7.78;63.95
75668;BME280;64266;48.798;44.756;2022-12-31T16:29:25;102156.03;;;7.85;64.20
75668;BME280;64266;48.798;44.756;2022-12-31T16:31:52;102107.84;;;7.67;63.65
75668;BME280;64266;48.798;44.756;2022-12-31T16:34:21;102139.88;;;7.88;62.68
75668;BME280;64266;48.798;44.756;2022-12-31T16:37:03;102145.81;;;7.90;63.64
75668;BME280;64266;48.798;44.756;2022-12-31T16:44:40;102130.44;;;7.94;62.25
75668;BME280;64266;48.798;44.756;2022-12-31T16:47:07;102135.59;;;7.87;62.81
75668;BME280;64266;48.798;44.756;2022-12-31T16:49:37;102109.69;;;7.50;62.16
75668;BME280;64266;48.798;44.756;2022-12-31T16:52:07;102090.84;;;7.37;62.22
75668;BME280;64266;48.798;44.756;2022-12-31T16:54:36;102066.25;;;7.21;63.39
75668;BME280;64266;48.798;44.756;2022-12-31T16:57:03;102150.28;;;7.66;62.90
75668;BME280;64266;48.798;44.756;2022-12-31T16:59:39;102054.69;;;7.05;63.27
75668;BME280;64266;48.798;44.756;2022-12-31T17:02:16;102109.00;;;7.40;62.71
75668;BME280;64266;48.798;44.756;2022-12-31T17:04:51;102157.19;;;7.67;62.34
75668;BME280;64266;48.798;44.756;2022-12-31T17:10:20;102081.75;;;7.16;63.15
75668;BME280;64266;48.798;44.756;2022-12-31T17:12:59;102154.69;;;7.49;63.04
75668;BME280;64266;48.798;44.756;2022-12-31T17:15:36;102143.31;;;7.48;63.06
75668;BME280;64266;48.798;44.756;2022-12-31T17:18:04;102136.56;;;7.38;62.48
75668;BME280;64266;48.798;44.756;2022-12-31T17:20:32;102147.44;;;7.35;61.98